createdAt,value
2017-07-18T00:00:53.186Z,100746.95
2017-07-18T00:03:56.528Z,100741.14
2017-07-18T00:06:59.910Z,100740.34
2017-07-18T00:10:03.250Z,100741.03
2017-07-18T00:13:07.392Z,100741.10
2017-07-18T00:16:10.731Z,100742.91
2017-07-18T00:19:14.114Z,100743.67
2017-07-18T00:22:17.459Z,100728.71
2017-07-18T00:25:20.831Z,100742.03
2017-07-18T00:28:24.315Z,100731.04
2017-07-18T00:31:27.655Z,100730.52
2017-07-18T00:34:31.027Z,100732.52
2017-07-18T00:37:34.374Z,100740.73
2017-07-18T00:40:37.743Z,100736.05
2017-07-18T00:43:41.850Z,100739.70
2017-07-18T00:46:45.994Z,100736.17
2017-07-18T00:49:49.366Z,100727.94
2017-07-18T00:52:53.475Z,100726.98
2017-07-18T00:55:57.694Z,100726.52
2017-07-18T00:59:01.810Z,100729.71
2017-07-18T01:02:05.952Z,100728.95
2017-07-18T01:05:09.291Z,100718.44
2017-07-18T01:08:13.435Z,100722.51
2017-07-18T01:11:16.778Z,100736.38
2017-07-18T01:14:20.156Z,100739.03
2017-07-18T01:17:23.498Z,100732.67
2017-07-18T01:20:27.642Z,100724.10
2017-07-18T01:23:31.222Z,100728.77
2017-07-18T01:26:35.330Z,100729.20
2017-07-18T01:29:39.470Z,100732.15
2017-07-18T01:32:42.826Z,100720.55
2017-07-18T01:35:46.201Z,100720.17
2017-07-18T01:38:49.542Z,100723.20
2017-07-18T01:41:53.680Z,100723.15
2017-07-18T01:44:57.018Z,100717.52
2017-07-18T01:48:00.391Z,100706.46
2017-07-18T01:51:03.737Z,100705.95
2017-07-18T01:54:07.107Z,100711.92
2017-07-18T01:57:10.453Z,100707.66
2017-07-18T02:00:13.830Z,100695.42
2017-07-18T02:03:17.178Z,100696.97
2017-07-18T02:06:21.315Z,100709.95
2017-07-18T02:09:24.802Z,100698.58
2017-07-18T02:12:28.910Z,100696.47
2017-07-18T02:15:33.048Z,100695.65
2017-07-18T02:18:36.390Z,100697.44
2017-07-18T02:21:39.763Z,100691.99
2017-07-18T02:24:43.106Z,100695.63
2017-07-18T02:27:46.482Z,100688.88
2017-07-18T02:30:49.823Z,100689.39
2017-07-18T02:33:53.962Z,100682.73
2017-07-18T02:36:57.303Z,100684.28
2017-07-18T02:40:00.686Z,100688.94
2017-07-18T02:43:04.022Z,100690.41
2017-07-18T02:46:08.177Z,100684.86
2017-07-18T02:49:11.938Z,100678.77
2017-07-18T02:52:16.047Z,100678.11
2017-07-18T02:55:19.422Z,100673.86
2017-07-18T02:58:22.762Z,100677.90
2017-07-18T03:01:26.137Z,100678.17
2017-07-18T03:04:29.479Z,100668.89
2017-07-18T03:07:32.870Z,100670.47
2017-07-18T03:10:36.214Z,100677.72
2017-07-18T03:13:39.590Z,100676.70
2017-07-18T03:16:42.930Z,100679.30
2017-07-18T03:19:47.086Z,100675.39
2017-07-18T03:22:50.558Z,100667.96
2017-07-18T03:25:54.677Z,100666.95
2017-07-18T03:28:58.051Z,100675.37
2017-07-18T03:32:01.398Z,100673.55
2017-07-18T03:35:05.540Z,100672.55
2017-07-18T03:38:08.875Z,100668.95
2017-07-18T03:41:12.263Z,100664.37
2017-07-18T03:44:15.603Z,100674.30
2017-07-18T03:47:19.813Z,100677.92
2017-07-18T03:50:23.159Z,100667.05
2017-07-18T03:53:26.538Z,100676.70
2017-07-18T03:56:29.879Z,100682.78
2017-07-18T03:59:33.258Z,100684.08
2017-07-18T04:02:36.782Z,100686.35
2017-07-18T04:05:40.546Z,100680.98
2017-07-18T04:08:43.918Z,100684.20
2017-07-18T04:11:47.262Z,100676.61
2017-07-18T04:14:50.639Z,100677.52
2017-07-18T04:17:53.982Z,100678.91
2017-07-18T04:20:57.363Z,100678.55
2017-07-18T04:24:01.498Z,100678.64
2017-07-18T04:27:04.877Z,100687.31
2017-07-18T04:30:09.304Z,100687.69
2017-07-18T04:33:13.391Z,100679.98
2017-07-18T04:36:16.729Z,100682.96
2017-07-18T04:39:20.031Z,100679.89
2017-07-18T04:42:23.371Z,100685.09
2017-07-18T04:45:26.670Z,100679.84
2017-07-18T04:48:30.021Z,100682.64
2017-07-18T04:51:33.370Z,100675.50
2017-07-18T04:54:36.799Z,100674.07
2017-07-18T04:57:40.859Z,100675.28
2017-07-18T05:00:44.231Z,100672.27
2017-07-18T05:03:47.691Z,100684.31
2017-07-18T05:06:51.012Z,100680.73
2017-07-18T05:09:54.394Z,100684.27
2017-07-18T05:12:58.481Z,100683.03
2017-07-18T05:16:01.836Z,100677.10
2017-07-18T05:19:05.157Z,100680.23
2017-07-18T05:22:08.528Z,100687.91
2017-07-18T05:25:11.828Z,100683.53
2017-07-18T05:28:15.180Z,100684.47
2017-07-18T05:31:19.251Z,100693.27
2017-07-18T05:34:22.638Z,100687.27
2017-07-18T05:37:26.090Z,100684.48
2017-07-18T05:40:29.391Z,100679.34
2017-07-18T05:43:32.719Z,100675.81
2017-07-18T05:46:36.040Z,100680.80
2017-07-18T05:49:39.391Z,100676.75
2017-07-18T05:52:43.509Z,100671.64
2017-07-18T05:55:46.871Z,100664.70
2017-07-18T05:58:50.196Z,100661.70
2017-07-18T06:01:54.314Z,100671.28
2017-07-18T06:04:57.632Z,100681.56
2017-07-18T06:08:00.988Z,100671.05
2017-07-18T06:11:04.316Z,100677.08
2017-07-18T06:14:07.672Z,100666.38
2017-07-18T06:17:10.992Z,100669.48
2017-07-18T06:20:15.109Z,100661.94
2017-07-18T06:23:19.355Z,100662.63
2017-07-18T06:26:22.680Z,100668.21
2017-07-18T06:29:26.823Z,100665.18
2017-07-18T06:32:30.129Z,100661.63
2017-07-18T06:35:33.478Z,100661.60
2017-07-18T06:38:36.813Z,100660.65
2017-07-18T06:41:40.207Z,100663.34
2017-07-18T06:44:43.548Z,100664.37
2017-07-18T06:47:46.907Z,100665.70
2017-07-18T06:50:50.203Z,100665.53
2017-07-18T06:53:53.546Z,100650.55
2017-07-18T06:56:56.884Z,100664.05
2017-07-18T07:00:00.284Z,100663.31
2017-07-18T07:03:03.601Z,100656.91
2017-07-18T07:06:06.982Z,100663.52
2017-07-18T07:09:10.651Z,100655.00
2017-07-18T07:12:14.741Z,100659.63
2017-07-18T07:15:18.098Z,100647.04
2017-07-18T07:18:21.439Z,100638.31
2017-07-18T07:21:24.816Z,100641.83
2017-07-18T07:24:28.947Z,100644.52
2017-07-18T07:27:32.275Z,100640.26
2017-07-18T07:30:35.628Z,100639.20
2017-07-18T07:33:39.692Z,100640.36
2017-07-18T07:36:43.051Z,100634.52
2017-07-18T07:39:46.382Z,100640.31
2017-07-18T07:42:49.720Z,100629.33
2017-07-18T07:45:53.811Z,100642.59
2017-07-18T07:48:57.319Z,100632.20
2017-07-18T07:52:00.698Z,100634.28
2017-07-18T07:55:04.024Z,100635.28
2017-07-18T07:58:07.354Z,100627.02
2017-07-18T08:01:10.690Z,100632.77
2017-07-18T08:04:14.043Z,100625.30
2017-07-18T08:07:17.343Z,100626.45
2017-07-18T08:10:20.691Z,100635.00
2017-07-18T08:13:23.991Z,100631.66
2017-07-18T08:16:27.338Z,100623.13
2017-07-18T08:19:31.016Z,100631.26
2017-07-18T08:22:35.076Z,100628.44
2017-07-18T08:25:38.427Z,100627.64
2017-07-18T08:28:42.543Z,100623.82
2017-07-18T08:31:46.663Z,100616.03
2017-07-18T08:34:49.968Z,100621.54
2017-07-18T08:37:53.331Z,100613.38
2017-07-18T08:40:56.669Z,100609.77
2017-07-18T08:44:00.023Z,100608.64
2017-07-18T08:47:03.342Z,100610.24
2017-07-18T08:50:07.457Z,100600.95
2017-07-18T08:53:10.766Z,100607.02
2017-07-18T08:56:14.141Z,100602.23
2017-07-18T08:59:18.242Z,100596.13
2017-07-18T09:02:21.614Z,100594.00
2017-07-18T09:05:24.934Z,100587.59
2017-07-18T09:08:28.310Z,100581.61
2017-07-18T09:11:31.855Z,100582.34
2017-07-18T09:14:35.214Z,100582.05
2017-07-18T09:17:38.544Z,100579.07
2017-07-18T09:20:41.863Z,100574.05
2017-07-18T09:23:45.232Z,100577.76
2017-07-18T09:26:48.579Z,100573.16
2017-07-18T09:29:51.915Z,100576.85
2017-07-18T09:32:55.243Z,100570.21
2017-07-18T09:35:58.587Z,100572.98
2017-07-18T09:39:01.931Z,100563.67
2017-07-18T09:42:05.283Z,100562.99
2017-07-18T09:45:08.629Z,100557.64
2017-07-18T09:48:12.072Z,100552.81
2017-07-18T09:51:15.410Z,100552.81
2017-07-18T09:54:27.466Z,100549.44
2017-07-18T09:57:30.827Z,100550.25
2017-07-18T10:03:38.423Z,100537.17
2017-07-18T10:06:41.747Z,100531.06
2017-07-18T10:09:45.103Z,100539.49
2017-07-18T10:12:48.419Z,100537.30
2017-07-18T10:15:51.766Z,100533.69
2017-07-18T10:18:55.279Z,100527.36
2017-07-18T10:21:58.662Z,100527.10
2017-07-18T10:25:01.991Z,100519.54
2017-07-18T10:28:05.319Z,100529.63
2017-07-18T10:31:08.644Z,100537.31
2017-07-18T10:34:12.017Z,100523.91
2017-07-18T10:37:15.334Z,100531.47
2017-07-18T10:40:18.668Z,100514.99
2017-07-18T10:43:22.009Z,100509.05
2017-07-18T10:46:26.076Z,100511.37
2017-07-18T10:49:29.435Z,100520.47
2017-07-18T10:52:33.519Z,100506.10
2017-07-18T10:55:36.886Z,100506.66
2017-07-18T10:58:40.212Z,100507.36
2017-07-18T11:01:43.568Z,100501.13
2017-07-18T11:04:46.931Z,100493.34
2017-07-18T11:07:51.035Z,100498.80
2017-07-18T11:10:54.385Z,100480.50
2017-07-18T11:13:57.684Z,100485.47
2017-07-18T11:17:01.065Z,100487.08
2017-07-18T11:20:04.410Z,100485.64
2017-07-18T11:23:07.766Z,100475.98
2017-07-18T11:26:11.120Z,100465.16
2017-07-18T11:29:14.439Z,100464.88
2017-07-18T11:32:17.802Z,100459.69
2017-07-18T11:35:21.132Z,100457.29
2017-07-18T11:38:24.490Z,100456.36
2017-07-18T11:41:28.567Z,100454.17
2017-07-18T11:44:31.922Z,100446.90
2017-07-18T11:47:35.282Z,100443.27
2017-07-18T11:50:38.630Z,100443.19
2017-07-18T11:53:42.111Z,100441.88
2017-07-18T11:56:45.430Z,100427.95
2017-07-18T11:59:48.787Z,100431.03
2017-07-18T12:02:52.089Z,100428.95
2017-07-18T12:05:55.415Z,100422.00
2017-07-18T12:08:59.601Z,100428.23
2017-07-18T12:12:02.954Z,100426.24
2017-07-18T12:15:06.274Z,100421.15
2017-07-18T12:18:09.619Z,100425.75
2017-07-18T12:21:13.104Z,100421.39
2017-07-18T12:24:16.423Z,100418.11
2017-07-18T12:27:19.767Z,100406.58
2017-07-18T12:30:23.078Z,100402.34
2017-07-18T12:33:26.437Z,100396.59
2017-07-18T12:36:30.923Z,100404.62
2017-07-18T12:39:34.246Z,100395.73
2017-07-18T12:42:38.343Z,100390.69
2017-07-18T12:45:41.686Z,100386.37
2017-07-18T12:48:45.142Z,100383.36
2017-07-18T12:51:49.257Z,100383.51
2017-07-18T12:54:53.395Z,100381.30
2017-07-18T12:57:56.734Z,100367.62
2017-07-18T13:01:00.190Z,100365.09
2017-07-18T13:04:03.542Z,100358.56
2017-07-18T13:07:06.922Z,100356.17
2017-07-18T13:10:10.224Z,100345.91
2017-07-18T13:13:13.571Z,100352.36
2017-07-18T13:16:16.922Z,100355.09
2017-07-18T13:19:20.299Z,100346.40
2017-07-18T13:22:23.776Z,100342.27
2017-07-18T13:25:27.106Z,100349.64
2017-07-18T13:28:30.468Z,100335.37
2017-07-18T13:31:33.859Z,100320.39
2017-07-18T13:34:37.207Z,100326.27
2017-07-18T13:37:40.507Z,100324.47
2017-07-18T13:40:43.962Z,100323.83
2017-07-18T13:43:47.284Z,100309.78
2017-07-18T13:46:50.615Z,100306.77
2017-07-18T13:49:54.725Z,100307.28
2017-07-18T13:52:58.822Z,100308.22
2017-07-18T13:56:02.168Z,100300.34
2017-07-18T13:59:05.531Z,100290.25
2017-07-18T14:02:08.854Z,100295.08
2017-07-18T14:05:12.207Z,100291.72
2017-07-18T14:08:15.571Z,100285.89
2017-07-18T14:11:18.891Z,100283.66
2017-07-18T14:14:22.247Z,100280.02
2017-07-18T14:17:25.579Z,100282.34
2017-07-18T14:20:28.957Z,100265.07
2017-07-18T14:23:32.306Z,100264.66
2017-07-18T14:26:35.657Z,100263.19
2017-07-18T14:29:38.971Z,100261.48
2017-07-18T14:32:42.351Z,100253.56
2017-07-18T14:35:45.658Z,100258.22
2017-07-18T14:38:48.995Z,100245.62
2017-07-18T14:41:53.060Z,100251.42
2017-07-18T14:44:56.415Z,100252.57
2017-07-18T14:47:59.931Z,100244.66
2017-07-18T14:51:03.260Z,100240.10
2017-07-18T14:54:06.612Z,100245.35
2017-07-18T14:57:09.927Z,100233.83
2017-07-18T15:00:13.295Z,100233.80
2017-07-18T15:03:16.615Z,100227.08
2017-07-18T15:06:19.964Z,100224.73
2017-07-18T15:09:24.032Z,100222.34
2017-07-18T15:12:27.406Z,100214.09
2017-07-18T15:15:30.708Z,100207.66
2017-07-18T15:18:34.077Z,100207.28
2017-07-18T15:21:37.383Z,100207.48
2017-07-18T15:24:40.711Z,100214.16
2017-07-18T15:27:44.050Z,100203.17
2017-07-18T15:30:48.149Z,100196.77
2017-07-18T15:33:51.474Z,100188.93
2017-07-18T15:36:54.824Z,100196.87
2017-07-18T15:39:58.147Z,100182.80
2017-07-18T15:43:01.504Z,100185.58
2017-07-18T15:46:04.830Z,100177.97
2017-07-18T15:49:08.164Z,100174.08
2017-07-18T15:52:12.250Z,100176.52
2017-07-18T15:55:15.627Z,100167.61
2017-07-18T15:58:18.971Z,100162.30
2017-07-18T16:01:23.090Z,100154.07
2017-07-18T16:04:27.786Z,100149.84
2017-07-18T16:07:31.163Z,100146.41
2017-07-18T16:10:34.527Z,100137.45
2017-07-18T16:13:37.859Z,100135.11
2017-07-18T16:16:41.225Z,100137.98
2017-07-18T16:19:44.546Z,100129.83
2017-07-18T16:22:47.894Z,100130.34
2017-07-18T16:25:51.982Z,100133.16
2017-07-18T16:28:55.369Z,100135.13
2017-07-18T16:31:58.720Z,100135.04
2017-07-18T16:35:02.098Z,100130.47
2017-07-18T16:38:05.563Z,100133.20
2017-07-18T16:41:08.878Z,100129.58
2017-07-18T16:44:12.234Z,100129.33
2017-07-18T16:47:15.535Z,100128.37
2017-07-18T16:50:18.883Z,100129.14
2017-07-18T16:53:22.234Z,100123.86
2017-07-18T16:56:25.566Z,100120.97
2017-07-18T16:59:28.891Z,100124.48
2017-07-18T17:02:32.243Z,100131.92
2017-07-18T17:05:35.956Z,100115.05
2017-07-18T17:08:40.036Z,100124.42
2017-07-18T17:11:43.411Z,100122.36
2017-07-18T17:14:46.731Z,100115.39
2017-07-18T17:17:50.851Z,100123.20
2017-07-18T17:20:54.934Z,100113.31
2017-07-18T17:23:58.287Z,100128.80
2017-07-18T17:27:01.611Z,100117.35
2017-07-18T17:30:05.013Z,100123.64
2017-07-18T17:33:08.362Z,100134.23
2017-07-18T17:36:11.689Z,100123.42
2017-07-18T17:39:15.032Z,100123.92
2017-07-18T17:42:18.350Z,100122.27
2017-07-18T17:45:21.750Z,100116.83
2017-07-18T17:48:25.075Z,100124.00
2017-07-18T17:51:29.447Z,100122.84
2017-07-18T17:54:33.657Z,100124.56
2017-07-18T17:57:37.197Z,100120.48
2017-07-18T18:00:40.528Z,100119.63
2017-07-18T18:03:43.902Z,100122.23
2017-07-18T18:06:47.239Z,100123.53
2017-07-18T18:09:50.587Z,100125.63
2017-07-18T18:12:53.906Z,100126.88
2017-07-18T18:15:57.241Z,100129.03
2017-07-18T18:19:01.299Z,100121.03
2017-07-18T18:22:04.689Z,100123.13
2017-07-18T18:25:08.043Z,100123.30
2017-07-18T18:28:12.164Z,100122.57
2017-07-18T18:31:15.622Z,100115.97
2017-07-18T18:34:18.943Z,100116.56
2017-07-18T18:37:22.311Z,100111.56
2017-07-18T18:40:25.663Z,100110.06
2017-07-18T18:43:29.056Z,100110.02
2017-07-18T18:46:32.419Z,100114.45
2017-07-18T18:49:35.789Z,100105.37
2017-07-18T18:52:39.124Z,100100.94
2017-07-18T18:55:42.476Z,100097.42
2017-07-18T18:58:45.831Z,100098.27
2017-07-18T19:01:49.987Z,100093.02
2017-07-18T19:04:53.481Z,100107.38
2017-07-18T19:07:56.821Z,100105.12
2017-07-18T19:11:00.577Z,100106.27
2017-07-18T19:14:03.935Z,100107.53
2017-07-18T19:17:08.092Z,100095.72
2017-07-18T19:20:11.457Z,100096.88
2017-07-18T19:23:15.595Z,100098.78
2017-07-18T19:26:19.263Z,100106.23
2017-07-18T19:29:22.583Z,100101.88
2017-07-18T19:32:26.715Z,100098.72
2017-07-18T19:35:30.048Z,100102.60
2017-07-18T19:38:33.404Z,100088.91
2017-07-18T19:41:36.749Z,100093.19
2017-07-18T19:44:46.547Z,100084.72
2017-07-18T19:47:50.208Z,100086.02
2017-07-18T19:50:53.552Z,100095.71
2017-07-18T19:53:56.961Z,100085.06
2017-07-18T19:57:00.406Z,100091.20
2017-07-18T20:00:03.791Z,100086.70
2017-07-18T20:03:07.931Z,100095.50
2017-07-18T20:06:11.346Z,100088.64
2017-07-18T20:09:14.663Z,100086.20
2017-07-18T20:12:18.015Z,100092.69
2017-07-18T20:15:22.106Z,100083.72
2017-07-18T20:18:25.483Z,100077.96
2017-07-18T20:21:29.200Z,100075.27
2017-07-18T20:24:32.518Z,100073.58
2017-07-18T20:27:36.667Z,100070.55
2017-07-18T20:30:40.002Z,100075.78
2017-07-18T20:33:43.366Z,100074.92
2017-07-18T20:36:46.678Z,100076.60
2017-07-18T20:39:50.035Z,100074.50
2017-07-18T20:42:54.132Z,100064.33
2017-07-18T20:45:57.471Z,100061.89
2017-07-18T20:49:00.863Z,100059.72
2017-07-18T20:52:04.165Z,100058.58
2017-07-18T20:55:07.553Z,100047.44
2017-07-18T20:58:10.910Z,100054.86
2017-07-18T21:01:15.069Z,100049.05
2017-07-18T21:04:18.735Z,100050.08
2017-07-18T21:07:22.069Z,100044.30
2017-07-18T21:10:25.439Z,100040.41
2017-07-18T21:13:29.546Z,100043.31
2017-07-18T21:16:33.663Z,100049.27
2017-07-18T21:19:37.022Z,100051.84
2017-07-18T21:22:40.393Z,100059.30
2017-07-18T21:25:44.063Z,100055.59
2017-07-18T21:28:47.479Z,100060.27
2017-07-18T21:31:50.866Z,100058.17
2017-07-18T21:34:54.202Z,100054.41
2017-07-18T21:37:57.684Z,100048.41
2017-07-18T21:41:01.056Z,100050.94
2017-07-18T21:44:04.440Z,100049.82
2017-07-18T21:47:07.808Z,100038.54
2017-07-18T21:50:11.146Z,100037.16
2017-07-18T21:53:14.525Z,100033.95
2017-07-18T21:56:18.653Z,100029.95
2017-07-18T21:59:22.047Z,100032.76
2017-07-18T22:02:25.372Z,100032.83
2017-07-18T22:05:28.756Z,100026.05
2017-07-18T22:08:32.263Z,100021.78
2017-07-18T22:11:36.351Z,100016.36
2017-07-18T22:14:39.722Z,100024.25
2017-07-18T22:17:43.077Z,100019.80
2017-07-18T22:20:46.465Z,100012.12
2017-07-18T22:23:50.566Z,100015.03
2017-07-18T22:26:53.910Z,100009.43
2017-07-18T22:29:57.374Z,99996.22
2017-07-18T22:33:01.499Z,100001.47
2017-07-18T22:36:04.861Z,100004.05
2017-07-18T22:39:08.170Z,100008.77
2017-07-18T22:42:11.551Z,100003.37
2017-07-18T22:45:14.898Z,100004.13
2017-07-18T22:48:27.068Z,100003.37
2017-07-18T22:51:31.180Z,100007.04
2017-07-18T22:54:34.606Z,100005.98
2017-07-18T22:57:37.967Z,100003.97
2017-07-18T23:00:41.272Z,99997.02
2017-07-18T23:03:44.740Z,99996.22
2017-07-18T23:06:48.092Z,100002.53
2017-07-18T23:09:52.219Z,100001.18
2017-07-18T23:12:55.554Z,99989.84
2017-07-18T23:15:58.915Z,99999.88
2017-07-18T23:19:02.245Z,99995.21
2017-07-18T23:22:05.613Z,100001.97
2017-07-18T23:25:09.939Z,99990.17
2017-07-18T23:28:13.312Z,99989.73
2017-07-18T23:31:16.690Z,99986.88
2017-07-18T23:34:20.046Z,99986.01
2017-07-18T23:37:23.412Z,99987.95
2017-07-18T23:40:27.499Z,99979.80
2017-07-18T23:43:30.866Z,99975.12
2017-07-18T23:46:34.176Z,99970.22
2017-07-18T23:49:37.552Z,99964.98
2017-07-18T23:52:40.855Z,99961.90
2017-07-18T23:55:44.207Z,99957.23
2017-07-18T23:58:48.318Z,99964.66
